sensor_id;sensor_type;location;lat;lon;timestamp;pressure;altitude;pressure_sealevel;temperature;humidity
19108;BME280;9686;48.832;9.126;2024-03-02T00:00:23;97048.94;;;8.72;100.00
19108;BME280;9686;48.832;9.126;2024-03-02T00:02:50;97049.53;;;8.88;100.00
19108;BME280;9686;48.832;9.126;2024-03-02T00:05:20;97054.75;;;8.86;100.00
19108;BME280;9686;48.832;9.126;2024-03-02T00:07:55;97049.78;;;8.73;100.00
19108;BME280;9686;48.832;9.126;2024-03-02T00:10:41;97055.16;;;8.63;100.00
19108;BME280;9686;48.832;9.126;2024-03-02T00:13:08;97057.81;;;8.60;100.00
19108;BME280;9686;48.832;9.126;2024-03-02T00:15:45;97046.66;;;8.52;100.00
19108;BME280;9686;48.832;9.126;2024-03-02T00:18:14;97048.19;;;8.65;100.00
19108;BME280;9686;48.832;9.126;2024-03-02T00:20:41;97038.75;;;8.61;100.00
19108;BME280;9686;48.832;9.126;2024-03-02T00:23:08;97038.59;;;8.69;100.00
19108;BME280;9686;48.832;9.126;2024-03-02T00:25:39;97041.22;;;8.68;100.00
19108;BME280;9686;48.832;9.126;2024-03-02T00:28:11;97050.00;;;8.60;100.00
19108;BME280;9686;48.832;9.126;2024-03-02T00:31:06;97062.13;;;8.58;100.00
19108;BME280;9686;48.832;9.126;2024-03-02T00:33:42;97063.84;;;8.61;100.00
19108;BME280;9686;48.832;9.126;2024-03-02T00:36:08;97059.59;;;8.55;100.00
19108;BME280;9686;48.832;9.126;2024-03-02T00:38:35;97062.13;;;8.61;100.00
19108;BME280;9686;48.832;9.126;2024-03-02T00:41:07;97056.94;;;8.60;100.00
19108;BME280;9686;48.832;9.126;2024-03-02T00:43:42;97057.09;;;8.49;100.00
19108;BME280;9686;48.832;9.126;2024-03-02T00:46:10;97052.75;;;8.51;100.00
19108;BME280;9686;48.832;9.126;2024-03-02T00:48:36;97060.63;;;8.47;100.00
19108;BME280;9686;48.832;9.126;2024-03-02T00:51:03;97058.91;;;8.46;100.00
19108;BME280;9686;48.832;9.126;2024-03-02T00:53:31;97061.63;;;8.38;100.00
19108;BME280;9686;48.832;9.126;2024-03-02T00:56:01;97057.31;;;8.37;100.00
19108;BME280;9686;48.832;9.126;2024-03-02T00:58:26;97057.38;;;8.34;100.00
19108;BME280;9686;48.832;9.126;2024-03-02T01:00:51;97062.56;;;8.31;100.00
19108;BME280;9686;48.832;9.126;2024-03-02T01:03:17;97056.75;;;8.15;100.00
19108;BME280;9686;48.832;9.126;2024-03-02T01:05:43;97059.88;;;8.39;100.00
19108;BME280;9686;48.832;9.126;2024-03-02T01:08:09;97057.34;;;8.31;100.00
19108;BME280;9686;48.832;9.126;2024-03-02T01:10:35;97054.03;;;8.23;100.00
19108;BME280;9686;48.832;9.126;2024-03-02T01:13:00;97062.84;;;8.14;100.00
19108;BME280;9686;48.832;9.126;2024-03-02T01:15:25;97064.53;;;8.17;100.00
19108;BME280;9686;48.832;9.126;2024-03-02T01:17:51;97055.16;;;8.08;100.00
19108;BME280;9686;48.832;9.126;2024-03-02T01:20:16;97057.47;;;8.25;100.00
19108;BME280;9686;48.832;9.126;2024-03-02T01:22:42;97063.88;;;8.01;100.00
19108;BME280;9686;48.832;9.126;2024-03-02T01:25:08;97061.44;;;7.92;100.00
19108;BME280;9686;48.832;9.126;2024-03-02T01:27:33;97057.75;;;8.05;100.00
19108;BME280;9686;48.832;9.126;2024-03-02T01:29:59;97058.84;;;7.90;100.00
19108;BME280;9686;48.832;9.126;2024-03-02T01:32:25;97069.25;;;7.89;100.00
19108;BME280;9686;48.832;9.126;2024-03-02T01:34:50;97060.72;;;7.79;100.00
19108;BME280;9686;48.832;9.126;2024-03-02T01:37:15;97059.69;;;7.92;100.00
19108;BME280;9686;48.832;9.126;2024-03-02T01:39:40;97061.50;;;7.87;100.00
19108;BME280;9686;48.832;9.126;2024-03-02T01:42:06;97060.75;;;7.76;100.00
19108;BME280;9686;48.832;9.126;2024-03-02T01:44:31;97060.75;;;7.76;100.00
19108;BME280;9686;48.832;9.126;2024-03-02T01:46:57;97054.03;;;7.64;100.00
19108;BME280;9686;48.832;9.126;2024-03-02T01:49:22;97059.00;;;7.78;100.00
19108;BME280;9686;48.832;9.126;2024-03-02T01:51:47;97059.16;;;7.67;100.00
19108;BME280;9686;48.832;9.126;2024-03-02T01:54:13;97051.44;;;7.63;100.00
19108;BME280;9686;48.832;9.126;2024-03-02T01:56:38;97056.03;;;7.42;100.00
19108;BME280;9686;48.832;9.126;2024-03-02T01:59:03;97050.88;;;7.39;100.00
19108;BME280;9686;48.832;9.126;2024-03-02T02:01:29;97039.44;;;7.56;100.00
19108;BME280;9686;48.832;9.126;2024-03-02T02:03:54;97048.28;;;7.41;100.00
19108;BME280;9686;48.832;9.126;2024-03-02T02:06:20;97045.81;;;7.30;100.00
19108;BME280;9686;48.832;9.126;2024-03-02T02:08:45;97039.78;;;7.27;100.00
19108;BME280;9686;48.832;9.126;2024-03-02T02:11:14;97045.94;;;7.18;100.00
19108;BME280;9686;48.832;9.126;2024-03-02T02:13:40;97041.81;;;7.00;100.00
19108;BME280;9686;48.832;9.126;2024-03-02T02:16:06;97035.72;;;7.06;100.00
19108;BME280;9686;48.832;9.126;2024-03-02T02:18:32;97034.03;;;7.02;100.00
19108;BME280;9686;48.832;9.126;2024-03-02T02:20:57;97038.34;;;7.01;100.00
19108;BME280;9686;48.832;9.126;2024-03-02T02:23:23;97040.94;;;7.01;100.00
19108;BME280;9686;48.832;9.126;2024-03-02T02:25:48;97036.88;;;6.79;100.00
19108;BME280;9686;48.832;9.126;2024-03-02T02:28:13;97038.34;;;7.01;100.00
19108;BME280;9686;48.832;9.126;2024-03-02T02:30:38;97041.88;;;6.96;100.00
19108;BME280;9686;48.832;9.126;2024-03-02T02:33:05;97040.09;;;6.99;100.00
19108;BME280;9686;48.832;9.126;2024-03-02T02:35:30;97032.28;;;7.07;100.00
19108;BME280;9686;48.832;9.126;2024-03-02T02:37:56;97027.19;;;6.96;100.00
19108;BME280;9686;48.832;9.126;2024-03-02T02:40:22;97027.13;;;7.02;100.00
19108;BME280;9686;48.832;9.126;2024-03-02T02:42:47;97028.84;;;7.03;100.00
19108;BME280;9686;48.832;9.126;2024-03-02T02:45:13;97012.47;;;7.00;100.00
19108;BME280;9686;48.832;9.126;2024-03-02T02:47:40;97008.13;;;7.00;100.00
19108;BME280;9686;48.832;9.126;2024-03-02T02:50:09;97005.66;;;6.91;100.00
19108;BME280;9686;48.832;9.126;2024-03-02T02:52:36;97002.28;;;6.86;100.00
19108;BME280;9686;48.832;9.126;2024-03-02T02:55:06;97002.09;;;7.03;100.00
19108;BME280;9686;48.832;9.126;2024-03-02T02:57:32;97011.69;;;6.93;100.00
19108;BME280;9686;48.832;9.126;2024-03-02T03:00:34;97015.13;;;6.94;100.00
19108;BME280;9686;48.832;9.126;2024-03-02T03:02:53;97017.78;;;6.89;100.00
19108;BME280;9686;48.832;9.126;2024-03-02T03:05:18;97013.41;;;6.94;100.00
19108;BME280;9686;48.832;9.126;2024-03-02T03:07:44;97009.97;;;6.92;100.00
19108;BME280;9686;48.832;9.126;2024-03-02T03:10:10;97015.94;;;6.97;100.00
19108;BME280;9686;48.832;9.126;2024-03-02T03:12:35;97011.69;;;6.92;100.00
19108;BME280;9686;48.832;9.126;2024-03-02T03:15:01;97005.75;;;6.85;100.00
19108;BME280;9686;48.832;9.126;2024-03-02T03:17:28;97007.44;;;6.86;100.00
19108;BME280;9686;48.832;9.126;2024-03-02T03:19:53;97007.50;;;6.82;100.00
19108;BME280;9686;48.832;9.126;2024-03-02T03:22:19;97021.28;;;6.85;100.00
19108;BME280;9686;48.832;9.126;2024-03-02T03:24:45;97017.03;;;6.78;100.00
19108;BME280;9686;48.832;9.126;2024-03-02T03:27:10;97027.38;;;6.76;100.00
19108;BME280;9686;48.832;9.126;2024-03-02T03:29:38;97030.81;;;6.82;100.00
19108;BME280;9686;48.832;9.126;2024-03-02T03:32:04;97019.53;;;6.87;100.00
19108;BME280;9686;48.832;9.126;2024-03-02T03:34:34;97023.03;;;6.82;100.00
19108;BME280;9686;48.832;9.126;2024-03-02T03:36:59;97026.50;;;6.80;100.00
19108;BME280;9686;48.832;9.126;2024-03-02T03:39:24;97019.63;;;6.76;100.00
19108;BME280;9686;48.832;9.126;2024-03-02T03:41:50;97022.16;;;6.83;100.00
19108;BME280;9686;48.832;9.126;2024-03-02T03:44:16;97014.38;;;6.84;100.00
19108;BME280;9686;48.832;9.126;2024-03-02T03:46:41;97013.59;;;6.79;100.00
19108;BME280;9686;48.832;9.126;2024-03-02T03:49:06;97014.47;;;6.73;100.00
19108;BME280;9686;48.832;9.126;2024-03-02T03:51:33;97014.50;;;6.72;100.00
19108;BME280;9686;48.832;9.126;2024-03-02T03:53:58;97011.00;;;6.76;100.00
19108;BME280;9686;48.832;9.126;2024-03-02T03:56:23;97015.25;;;6.83;100.00
19108;BME280;9686;48.832;9.126;2024-03-02T03:58:49;97011.88;;;6.73;100.00
19108;BME280;9686;48.832;9.126;2024-03-02T04:01:14;97010.31;;;6.60;100.00
19108;BME280;9686;48.832;9.126;2024-03-02T04:03:39;97024.06;;;6.64;100.00
19108;BME280;9686;48.832;9.126;2024-03-02T04:06:05;97023.28;;;6.59;100.00
19108;BME280;9686;48.832;9.126;2024-03-02T04:08:30;97015.47;;;6.63;100.00
19108;BME280;9686;48.832;9.126;2024-03-02T04:10:56;97018.94;;;6.61;100.00
19108;BME280;9686;48.832;9.126;2024-03-02T04:13:21;97011.22;;;6.55;100.00
19108;BME280;9686;48.832;9.126;2024-03-02T04:15:47;97017.44;;;6.35;100.00
19108;BME280;9686;48.832;9.126;2024-03-02T04:18:12;97014.78;;;6.41;100.00
19108;BME280;9686;48.832;9.126;2024-03-02T04:20:37;97016.56;;;6.38;100.00
19108;BME280;9686;48.832;9.126;2024-03-02T04:23:03;97009.72;;;6.31;100.00
19108;BME280;9686;48.832;9.126;2024-03-02T04:25:28;97011.47;;;6.29;100.00
19108;BME280;9686;48.832;9.126;2024-03-02T04:27:53;97008.88;;;6.29;100.00
19108;BME280;9686;48.832;9.126;2024-03-02T04:30:19;97008.88;;;6.29;100.00
19108;BME280;9686;48.832;9.126;2024-03-02T04:32:44;97005.44;;;6.30;100.00
19108;BME280;9686;48.832;9.126;2024-03-02T04:35:12;97017.44;;;6.35;100.00
19108;BME280;9686;48.832;9.126;2024-03-02T04:37:38;97025.25;;;6.31;100.00
19108;BME280;9686;48.832;9.126;2024-03-02T04:40:04;97024.41;;;6.29;100.00
19108;BME280;9686;48.832;9.126;2024-03-02T04:42:33;97024.53;;;6.12;100.00
19108;BME280;9686;48.832;9.126;2024-03-02T04:44:58;97021.13;;;6.08;100.00
19108;BME280;9686;48.832;9.126;2024-03-02T04:47:23;97013.22;;;6.25;100.00
19108;BME280;9686;48.832;9.126;2024-03-02T04:49:48;97017.50;;;6.31;100.00
19108;BME280;9686;48.832;9.126;2024-03-02T04:52:14;97023.66;;;6.14;100.00
19108;BME280;9686;48.832;9.126;2024-03-02T04:54:39;97021.09;;;6.10;100.00
19108;BME280;9686;48.832;9.126;2024-03-02T04:57:23;97025.31;;;6.20;100.00
19108;BME280;9686;48.832;9.126;2024-03-02T04:59:48;97022.72;;;6.20;100.00
19108;BME280;9686;48.832;9.126;2024-03-02T05:02:14;97021.03;;;6.17;100.00
19108;BME280;9686;48.832;9.126;2024-03-02T05:04:39;97020.28;;;6.03;100.00
19108;BME280;9686;48.832;9.126;2024-03-02T05:07:05;97012.56;;;5.97;100.00
19108;BME280;9686;48.832;9.126;2024-03-02T05:09:30;97020.34;;;5.99;100.00
19108;BME280;9686;48.832;9.126;2024-03-02T05:11:55;97018.59;;;6.02;100.00
19108;BME280;9686;48.832;9.126;2024-03-02T05:14:39;97022.03;;;6.01;100.00
19108;BME280;9686;48.832;9.126;2024-03-02T05:17:05;97018.53;;;6.08;100.00
19108;BME280;9686;48.832;9.126;2024-03-02T05:19:30;97023.75;;;5.98;100.00
19108;BME280;9686;48.832;9.126;2024-03-02T05:21:55;97021.19;;;5.96;100.00
19108;BME280;9686;48.832;9.126;2024-03-02T05:24:20;97026.38;;;5.95;100.00
19108;BME280;9686;48.832;9.126;2024-03-02T05:26:46;97024.69;;;5.91;100.00
19108;BME280;9686;48.832;9.126;2024-03-02T05:29:11;97014.38;;;5.83;100.00
19108;BME280;9686;48.832;9.126;2024-03-02T05:31:37;97031.59;;;5.90;100.00
19108;BME280;9686;48.832;9.126;2024-03-02T05:34:02;97022.03;;;5.97;100.00
19108;BME280;9686;48.832;9.126;2024-03-02T05:36:27;97029.75;;;6.07;100.00
19108;BME280;9686;48.832;9.126;2024-03-02T05:38:53;97028.94;;;5.99;100.00
19108;BME280;9686;48.832;9.126;2024-03-02T05:41:18;97028.16;;;5.85;100.00
19108;BME280;9686;48.832;9.126;2024-03-02T05:43:43;97034.16;;;5.87;100.00
19108;BME280;9686;48.832;9.126;2024-03-02T05:46:09;97038.47;;;5.91;100.00
19108;BME280;9686;48.832;9.126;2024-03-02T05:48:34;97035.03;;;5.84;100.00
19108;BME280;9686;48.832;9.126;2024-03-02T05:50:59;97041.94;;;5.84;100.00
19108;BME280;9686;48.832;9.126;2024-03-02T05:53:24;97041.09;;;5.83;100.00
19108;BME280;9686;48.832;9.126;2024-03-02T05:55:50;97038.50;;;5.83;100.00
19108;BME280;9686;48.832;9.126;2024-03-02T05:58:20;97030.75;;;5.82;100.00
19108;BME280;9686;48.832;9.126;2024-03-02T06:01:04;97036.78;;;5.81;100.00
19108;BME280;9686;48.832;9.126;2024-03-02T06:03:30;97046.22;;;5.88;100.00
19108;BME280;9686;48.832;9.126;2024-03-02T06:05:56;97039.34;;;5.84;100.00
19108;BME280;9686;48.832;9.126;2024-03-02T06:08:21;97039.38;;;5.82;100.00
19108;BME280;9686;48.832;9.126;2024-03-02T06:10:46;97046.22;;;5.88;100.00
19108;BME280;9686;48.832;9.126;2024-03-02T06:13:11;97042.78;;;5.86;100.00
19108;BME280;9686;48.832;9.126;2024-03-02T06:15:37;97047.03;;;5.98;100.00
19108;BME280;9686;48.832;9.126;2024-03-02T06:18:02;97051.25;;;6.12;100.00
19108;BME280;9686;48.832;9.126;2024-03-02T06:20:28;97047.09;;;5.90;100.00
19108;BME280;9686;48.832;9.126;2024-03-02T06:22:56;97046.97;;;6.08;100.00
19108;BME280;9686;48.832;9.126;2024-03-02T06:25:21;97039.31;;;5.99;100.00
19108;BME280;9686;48.832;9.126;2024-03-02T06:27:46;97049.53;;;6.13;100.00
19108;BME280;9686;48.832;9.126;2024-03-02T06:30:12;97051.22;;;6.15;100.00
19108;BME280;9686;48.832;9.126;2024-03-02T06:32:37;97054.63;;;6.22;100.00
19108;BME280;9686;48.832;9.126;2024-03-02T06:35:03;97054.56;;;6.33;100.00
19108;BME280;9686;48.832;9.126;2024-03-02T06:37:30;97050.19;;;6.39;100.00
19108;BME280;9686;48.832;9.126;2024-03-02T06:39:55;97053.56;;;6.46;100.00
19108;BME280;9686;48.832;9.126;2024-03-02T06:42:20;97056.97;;;6.56;100.00
19108;BME280;9686;48.832;9.126;2024-03-02T06:44:45;97058.59;;;6.64;100.00
19108;BME280;9686;48.832;9.126;2024-03-02T06:47:11;97058.56;;;6.67;100.00
19108;BME280;9686;48.832;9.126;2024-03-02T06:49:36;97064.59;;;6.69;100.00
19108;BME280;9686;48.832;9.126;2024-03-02T06:52:02;97061.06;;;6.79;100.00
19108;BME280;9686;48.832;9.126;2024-03-02T06:54:27;97060.91;;;6.92;100.00
19108;BME280;9686;48.832;9.126;2024-03-02T06:56:52;97058.25;;;6.98;100.00
19108;BME280;9686;48.832;9.126;2024-03-02T06:59:17;97057.34;;;7.05;100.00
19108;BME280;9686;48.832;9.126;2024-03-02T07:01:43;97059.00;;;7.10;100.00
19108;BME280;9686;48.832;9.126;2024-03-02T07:04:09;97051.97;;;7.19;100.00
19108;BME280;9686;48.832;9.126;2024-03-02T07:06:34;97055.28;;;7.34;100.00
19108;BME280;9686;48.832;9.126;2024-03-02T07:08:59;97054.19;;;7.51;100.00
19108;BME280;9686;48.832;9.126;2024-03-02T07:11:24;97061.13;;;7.49;100.00
19108;BME280;9686;48.832;9.126;2024-03-02T07:13:50;97056.56;;;7.67;100.00
19108;BME280;9686;48.832;9.126;2024-03-02T07:16:15;97057.31;;;7.76;100.00
19108;BME280;9686;48.832;9.126;2024-03-02T07:18:54;97069.34;;;7.80;100.00
19108;BME280;9686;48.832;9.126;2024-03-02T07:21:20;97061.22;;;8.05;100.00
19108;BME280;9686;48.832;9.126;2024-03-02T07:23:47;97058.44;;;8.18;100.00
19108;BME280;9686;48.832;9.126;2024-03-02T07:26:13;97065.44;;;8.14;100.00
19108;BME280;9686;48.832;9.126;2024-03-02T07:28:40;97062.69;;;8.23;100.00
19108;BME280;9686;48.832;9.126;2024-03-02T07:31:05;97059.22;;;8.23;100.00
19108;BME280;9686;48.832;9.126;2024-03-02T07:33:31;97057.38;;;8.34;100.00
19108;BME280;9686;48.832;9.126;2024-03-02T07:35:57;97065.00;;;8.43;100.00
19108;BME280;9686;48.832;9.126;2024-03-02T07:38:24;97053.78;;;8.41;100.00
19108;BME280;9686;48.832;9.126;2024-03-02T07:40:50;97053.72;;;8.46;100.00
19108;BME280;9686;48.832;9.126;2024-03-02T07:43:18;97057.13;;;8.48;100.00
19108;BME280;9686;48.832;9.126;2024-03-02T07:45:44;97065.88;;;8.44;100.00
19108;BME280;9686;48.832;9.126;2024-03-02T07:48:10;97066.72;;;8.44;100.00
19108;BME280;9686;48.832;9.126;2024-03-02T07:50:35;97066.78;;;8.41;100.00
19108;BME280;9686;48.832;9.126;2024-03-02T07:53:02;97070.25;;;8.40;100.00
19108;BME280;9686;48.832;9.126;2024-03-02T07:55:29;97067.56;;;8.45;100.00
19108;BME280;9686;48.832;9.126;2024-03-02T07:57:54;97072.81;;;8.42;100.00
19108;BME280;9686;48.832;9.126;2024-03-02T08:00:20;97071.13;;;8.39;100.00
19108;BME280;9686;48.832;9.126;2024-03-02T08:02:45;97073.56;;;8.48;100.00
19108;BME280;9686;48.832;9.126;2024-03-02T08:05:10;97068.41;;;8.47;100.00
19108;BME280;9686;48.832;9.126;2024-03-02T08:07:36;97068.19;;;8.60;100.00
19108;BME280;9686;48.832;9.126;2024-03-02T08:10:01;97068.13;;;8.65;100.00
19108;BME280;9686;48.832;9.126;2024-03-02T08:12:26;97072.31;;;8.72;100.00
19108;BME280;9686;48.832;9.126;2024-03-02T08:14:52;97070.44;;;8.80;100.00
19108;BME280;9686;48.832;9.126;2024-03-02T08:17:17;97067.69;;;8.89;100.00
19108;BME280;9686;48.832;9.126;2024-03-02T08:19:43;97068.41;;;8.98;100.00
19108;BME280;9686;48.832;9.126;2024-03-02T08:22:09;97063.88;;;9.07;100.00
19108;BME280;9686;48.832;9.126;2024-03-02T08:24:35;97061.94;;;9.18;100.00
19108;BME280;9686;48.832;9.126;2024-03-02T08:27:00;97059.13;;;9.29;100.00
19108;BME280;9686;48.832;9.126;2024-03-02T08:29:26;97042.50;;;9.38;100.00
19108;BME280;9686;48.832;9.126;2024-03-02T08:31:53;97038.88;;;9.45;100.00
19108;BME280;9686;48.832;9.126;2024-03-02T08:34:18;97047.34;;;9.54;100.00
19108;BME280;9686;48.832;9.126;2024-03-02T08:36:43;97057.56;;;9.65;100.00
19108;BME280;9686;48.832;9.126;2024-03-02T08:39:09;97050.34;;;9.76;100.00
19108;BME280;9686;48.832;9.126;2024-03-02T08:41:49;97056.88;;;9.96;100.00
19108;BME280;9686;48.832;9.126;2024-03-02T08:44:15;97048.00;;;10.04;100.00
19108;BME280;9686;48.832;9.126;2024-03-02T08:46:40;97047.09;;;10.05;100.00
19108;BME280;9686;48.832;9.126;2024-03-02T08:49:06;97047.56;;;10.24;100.00
19108;BME280;9686;48.832;9.126;2024-03-02T08:51:32;97046.47;;;10.34;100.00
19108;BME280;9686;48.832;9.126;2024-03-02T08:53:57;97046.06;;;10.51;100.00
19108;BME280;9686;48.832;9.126;2024-03-02T08:56:23;97043.19;;;10.62;100.00
19108;BME280;9686;48.832;9.126;2024-03-02T08:58:49;97038.03;;;10.59;100.00
19108;BME280;9686;48.832;9.126;2024-03-02T09:01:15;97044.44;;;10.81;100.00
19108;BME280;9686;48.832;9.126;2024-03-02T09:03:41;97042.00;;;10.75;100.00
19108;BME280;9686;48.832;9.126;2024-03-02T09:06:09;97042.22;;;11.00;100.00
19108;BME280;9686;48.832;9.126;2024-03-02T09:08:35;97044.69;;;11.04;100.00
19108;BME280;9686;48.832;9.126;2024-03-02T09:11:02;97035.56;;;11.21;100.00
19108;BME280;9686;48.832;9.126;2024-03-02T09:13:27;97040.09;;;11.45;100.00
19108;BME280;9686;48.832;9.126;2024-03-02T09:15:53;97036.38;;;11.54;100.00
19108;BME280;9686;48.832;9.126;2024-03-02T09:18:18;97026.31;;;11.69;100.00
19108;BME280;9686;48.832;9.126;2024-03-02T09:20:43;97030.38;;;11.81;100.00
19108;BME280;9686;48.832;9.126;2024-03-02T09:23:08;97025.41;;;12.01;100.00
19108;BME280;9686;48.832;9.126;2024-03-02T09:25:34;97018.88;;;12.15;100.00
19108;BME280;9686;48.832;9.126;2024-03-02T09:27:59;97017.44;;;12.32;100.00
19108;BME280;9686;48.832;9.126;2024-03-02T09:30:24;97015.47;;;12.39;100.00
19108;BME280;9686;48.832;9.126;2024-03-02T09:32:50;97009.91;;;12.50;100.00
19108;BME280;9686;48.832;9.126;2024-03-02T09:35:15;97009.75;;;12.54;100.00
19108;BME280;9686;48.832;9.126;2024-03-02T09:37:40;97008.44;;;12.68;100.00
19108;BME280;9686;48.832;9.126;2024-03-02T09:40:06;97008.16;;;12.77;100.00
19108;BME280;9686;48.832;9.126;2024-03-02T09:42:32;97008.44;;;12.92;100.00
19108;BME280;9686;48.832;9.126;2024-03-02T09:44:57;97012.03;;;12.90;100.00
19108;BME280;9686;48.832;9.126;2024-03-02T09:47:23;97004.81;;;12.96;100.00
19108;BME280;9686;48.832;9.126;2024-03-02T09:49:48;97004.41;;;13.09;97.18
19108;BME280;9686;48.832;9.126;2024-03-02T09:52:14;97001.19;;;13.25;95.87
19108;BME280;9686;48.832;9.126;2024-03-02T09:54:39;96994.13;;;13.29;95.54
19108;BME280;9686;48.832;9.126;2024-03-02T09:57:05;96994.31;;;13.46;90.65
19108;BME280;9686;48.832;9.126;2024-03-02T09:59:30;96991.78;;;13.45;91.45
19108;BME280;9686;48.832;9.126;2024-03-02T10:01:59;96992.69;;;13.44;92.14
19108;BME280;9686;48.832;9.126;2024-03-02T10:04:26;96992.25;;;13.56;90.47
19108;BME280;9686;48.832;9.126;2024-03-02T10:06:51;96992.25;;;13.78;88.34
19108;BME280;9686;48.832;9.126;2024-03-02T10:09:27;96993.69;;;13.86;86.76
19108;BME280;9686;48.832;9.126;2024-03-02T10:12:03;96994.56;;;14.09;79.65
19108;BME280;9686;48.832;9.126;2024-03-02T10:14:29;96995.03;;;14.18;77.85
19108;BME280;9686;48.832;9.126;2024-03-02T10:17:02;96985.78;;;14.10;79.39
19108;BME280;9686;48.832;9.126;2024-03-02T10:19:27;96987.19;;;14.18;74.88
19108;BME280;9686;48.832;9.126;2024-03-02T10:21:57;96981.50;;;14.29;75.83
19108;BME280;9686;48.832;9.126;2024-03-02T10:24:23;96981.31;;;14.34;75.36
19108;BME280;9686;48.832;9.126;2024-03-02T10:26:49;96977.84;;;14.33;76.69
19108;BME280;9686;48.832;9.126;2024-03-02T10:29:15;96981.44;;;14.53;76.32
19108;BME280;9686;48.832;9.126;2024-03-02T10:31:43;96980.09;;;14.64;73.66
19108;BME280;9686;48.832;9.126;2024-03-02T10:34:10;96979.81;;;14.70;77.31
19108;BME280;9686;48.832;9.126;2024-03-02T10:36:36;96968.75;;;14.42;78.30
19108;BME280;9686;48.832;9.126;2024-03-02T10:39:06;96969.72;;;14.61;76.57
19108;BME280;9686;48.832;9.126;2024-03-02T10:41:33;96970.25;;;14.69;70.73
19108;BME280;9686;48.832;9.126;2024-03-02T10:44:01;96969.63;;;14.83;68.50
19108;BME280;9686;48.832;9.126;2024-03-02T10:46:29;96963.81;;;15.17;67.78
19108;BME280;9686;48.832;9.126;2024-03-02T10:48:58;96955.34;;;15.10;68.58
19108;BME280;9686;48.832;9.126;2024-03-02T10:51:28;96960.97;;;15.01;69.54
19108;BME280;9686;48.832;9.126;2024-03-02T10:53:59;96951.28;;;15.03;69.19
19108;BME280;9686;48.832;9.126;2024-03-02T10:56:50;96951.66;;;15.15;68.52
19108;BME280;9686;48.832;9.126;2024-03-02T10:59:33;96944.72;;;15.14;75.36
19108;BME280;9686;48.832;9.126;2024-03-02T11:02:00;96946.34;;;15.16;76.56
19108;BME280;9686;48.832;9.126;2024-03-02T11:04:26;96939.25;;;15.18;78.17
19108;BME280;9686;48.832;9.126;2024-03-02T11:07:04;96929.59;;;15.19;75.26
19108;BME280;9686;48.832;9.126;2024-03-02T11:09:33;96936.22;;;15.46;74.78
19108;BME280;9686;48.832;9.126;2024-03-02T11:12:06;96942.25;;;15.48;69.87
19108;BME280;9686;48.832;9.126;2024-03-02T11:14:38;96932.16;;;15.58;73.38
19108;BME280;9686;48.832;9.126;2024-03-02T11:17:05;96931.28;;;15.59;73.15
19108;BME280;9686;48.832;9.126;2024-03-02T11:19:32;96926.53;;;15.67;68.86
19108;BME280;9686;48.832;9.126;2024-03-02T11:21:59;96922.09;;;15.49;69.46
19108;BME280;9686;48.832;9.126;2024-03-02T11:26:57;96911.03;;;15.80;70.35
19108;BME280;9686;48.832;9.126;2024-03-02T11:29:42;96898.81;;;16.32;68.81
19108;BME280;9686;48.832;9.126;2024-03-02T11:34:45;96893.56;;;16.32;67.94
19108;BME280;9686;48.832;9.126;2024-03-02T11:37:20;96891.72;;;16.51;65.24
19108;BME280;9686;48.832;9.126;2024-03-02T11:39:47;96890.63;;;16.55;65.24
19108;BME280;9686;48.832;9.126;2024-03-02T11:42:14;96885.22;;;16.76;62.13
19108;BME280;9686;48.832;9.126;2024-03-02T11:44:47;96884.03;;;16.99;58.45
19108;BME280;9686;48.832;9.126;2024-03-02T11:47:15;96882.59;;;17.09;56.81
19108;BME280;9686;48.832;9.126;2024-03-02T11:49:49;96877.69;;;17.34;55.24
19108;BME280;9686;48.832;9.126;2024-03-02T11:52:15;96870.81;;;17.63;54.66
19108;BME280;9686;48.832;9.126;2024-03-02T11:54:44;96869.16;;;17.46;54.69
19108;BME280;9686;48.832;9.126;2024-03-02T11:57:15;96857.44;;;18.43;51.60
19108;BME280;9686;48.832;9.126;2024-03-02T11:59:41;96861.41;;;18.81;50.83
19108;BME280;9686;48.832;9.126;2024-03-02T12:02:15;96853.94;;;19.16;50.17
19108;BME280;9686;48.832;9.126;2024-03-02T12:04:42;96851.38;;;19.42;46.01
19108;BME280;9686;48.832;9.126;2024-03-02T12:07:08;96838.00;;;19.99;46.24
19108;BME280;9686;48.832;9.126;2024-03-02T12:09:34;96833.09;;;20.73;nan
19108;BME280;9686;48.832;9.126;2024-03-02T12:12:03;96828.81;;;21.46;nan
19108;BME280;9686;48.832;9.126;2024-03-02T12:14:29;96823.16;;;21.64;nan
19108;BME280;9686;48.832;9.126;2024-03-02T12:16:55;96828.13;;;21.92;nan
19108;BME280;9686;48.832;9.126;2024-03-02T12:19:21;96823.94;;;22.25;nan
19108;BME280;9686;48.832;9.126;2024-03-02T12:21:46;96821.19;;;22.72;nan
19108;BME280;9686;48.832;9.126;2024-03-02T12:24:11;96818.59;;;22.13;nan
19108;BME280;9686;48.832;9.126;2024-03-02T12:26:37;96824.66;;;22.03;nan
19108;BME280;9686;48.832;9.126;2024-03-02T12:29:02;96821.00;;;21.93;nan
19108;BME280;9686;48.832;9.126;2024-03-02T12:31:27;96823.69;;;21.80;nan
19108;BME280;9686;48.832;9.126;2024-03-02T12:33:54;96816.38;;;21.83;nan
19108;BME280;9686;48.832;9.126;2024-03-02T12:36:19;96805.66;;;22.09;nan
19108;BME280;9686;48.832;9.126;2024-03-02T12:38:44;96812.97;;;21.81;nan
19108;BME280;9686;48.832;9.126;2024-03-02T12:41:14;96794.94;;;21.26;nan
19108;BME280;9686;48.832;9.126;2024-03-02T12:43:40;96802.50;;;20.56;nan
19108;BME280;9686;48.832;9.126;2024-03-02T12:46:05;96794.25;;;20.08;nan
19108;BME280;9686;48.832;9.126;2024-03-02T12:48:31;96795.41;;;19.77;nan
19108;BME280;9686;48.832;9.126;2024-03-02T12:50:56;96798.84;;;19.51;nan
19108;BME280;9686;48.832;9.126;2024-03-02T12:53:22;96796.19;;;19.24;nan
19108;BME280;9686;48.832;9.126;2024-03-02T12:55:48;96794.72;;;19.05;nan
19108;BME280;9686;48.832;9.126;2024-03-02T12:58:20;96795.69;;;19.04;nan
19108;BME280;9686;48.832;9.126;2024-03-02T13:00:48;96794.81;;;18.90;nan
19108;BME280;9686;48.832;9.126;2024-03-02T13:03:14;96796.34;;;18.79;nan
19108;BME280;9686;48.832;9.126;2024-03-02T13:05:40;96792.84;;;18.79;nan
19108;BME280;9686;48.832;9.126;2024-03-02T13:08:06;96798.03;;;18.66;nan
19108;BME280;9686;48.832;9.126;2024-03-02T13:10:32;96795.97;;;18.41;nan
19108;BME280;9686;48.832;9.126;2024-03-02T13:12:58;96791.03;;;18.51;nan
19108;BME280;9686;48.832;9.126;2024-03-02T13:15:28;96784.81;;;18.52;nan